createdAt,value
2022-12-25T00:01:36.023Z,67.42
2022-12-25T00:04:38.037Z,67.32
2022-12-25T00:07:39.922Z,66.77
2022-12-25T00:10:45.184Z,66.53
2022-12-25T00:13:47.639Z,64.78
2022-12-25T00:16:49.557Z,65.46
2022-12-25T00:19:51.441Z,65.54
2022-12-25T00:22:53.313Z,65.57
2022-12-25T00:25:55.235Z,64.54
2022-12-25T00:28:57.754Z,64.07
2022-12-25T00:31:59.683Z,64.57
2022-12-25T00:35:01.650Z,65.91
2022-12-25T00:38:03.741Z,65.63
2022-12-25T00:41:06.565Z,64.75
2022-12-25T00:44:09.299Z,66.17
2022-12-25T00:47:11.187Z,65.85
2022-12-25T00:50:13.175Z,65.76
2022-12-25T00:53:15.093Z,65.85
2022-12-25T00:56:18.027Z,65.81
2022-12-25T00:59:19.943Z,64.34
2022-12-25T01:02:25.036Z,63.78
2022-12-25T01:05:27.130Z,63.56
2022-12-25T01:08:30.186Z,64.49
2022-12-25T01:11:32.313Z,65.62
2022-12-25T01:14:34.257Z,66.80
2022-12-25T01:17:36.238Z,66.64
2022-12-25T01:20:38.117Z,66.08
2022-12-25T01:23:40.044Z,67.04
2022-12-25T01:26:41.904Z,67.08
2022-12-25T01:29:43.966Z,66.91
2022-12-25T01:32:46.007Z,66.61
2022-12-25T01:35:47.916Z,66.45
2022-12-25T01:38:49.854Z,66.89
2022-12-25T01:41:51.779Z,66.08
2022-12-25T01:44:53.678Z,65.78
2022-12-25T01:47:55.535Z,64.92
2022-12-25T01:50:58.611Z,66.15
2022-12-25T01:54:01.658Z,64.53
2022-12-25T01:57:04.371Z,64.05
2022-12-25T02:00:07.202Z,65.04
2022-12-25T02:03:09.247Z,64.98
2022-12-25T02:06:11.196Z,65.21
2022-12-25T02:09:13.100Z,64.96
2022-12-25T02:12:17.270Z,65.08
2022-12-25T02:15:20.304Z,65.44
2022-12-25T02:18:42.430Z,64.99
2022-12-25T02:21:44.325Z,65.60
2022-12-25T02:24:55.263Z,64.91
2022-12-25T02:28:15.853Z,65.21
2022-12-25T02:31:32.823Z,65.50
2022-12-25T02:34:48.388Z,63.82
2022-12-25T02:37:52.174Z,66.00
2022-12-25T02:40:57.964Z,65.10
2022-12-25T02:44:18.602Z,65.99
2022-12-25T02:47:39.079Z,66.14
2022-12-25T02:50:59.467Z,66.60
2022-12-25T02:54:20.810Z,66.12
2022-12-25T02:57:41.932Z,64.73
2022-12-25T03:01:03.244Z,66.03
2022-12-25T03:04:24.687Z,66.87
2022-12-25T03:07:27.230Z,67.01
2022-12-25T03:10:47.893Z,67.53
2022-12-25T03:13:50.399Z,66.94
2022-12-25T03:16:53.932Z,65.24
2022-12-25T03:20:14.688Z,66.39
2022-12-25T03:23:36.663Z,66.49
2022-12-25T03:26:56.834Z,69.52
2022-12-25T03:30:17.263Z,68.01
2022-12-25T03:33:45.009Z,68.35
2022-12-25T03:37:10.403Z,66.99
2022-12-25T03:40:31.006Z,66.66
2022-12-25T03:43:58.412Z,65.53
2022-12-25T03:47:20.926Z,67.71
2022-12-25T03:51:01.444Z,67.34
2022-12-25T03:54:23.271Z,66.05
2022-12-25T03:57:43.703Z,66.54
2022-12-25T04:01:04.435Z,68.47
2022-12-25T04:04:24.990Z,65.63
2022-12-25T04:07:45.241Z,66.92
2022-12-25T04:11:05.435Z,68.58
2022-12-25T04:14:26.000Z,67.79
2022-12-25T04:17:46.439Z,67.03
2022-12-25T04:21:07.150Z,68.54
2022-12-25T04:24:28.597Z,66.76
2022-12-25T04:27:49.418Z,66.58
2022-12-25T04:31:09.801Z,67.75
2022-12-25T04:34:30.535Z,67.39
2022-12-25T04:37:32.407Z,68.19
2022-12-25T04:40:34.229Z,67.51
2022-12-25T04:43:36.189Z,66.94
2022-12-25T04:46:38.200Z,70.91
2022-12-25T04:49:40.277Z,71.11
2022-12-25T04:52:42.251Z,67.35
2022-12-25T04:55:44.358Z,65.40
2022-12-25T04:58:46.634Z,68.37
2022-12-25T05:01:48.564Z,68.09
2022-12-25T05:04:50.571Z,67.67
2022-12-25T05:07:52.484Z,67.29
2022-12-25T05:10:54.347Z,68.68
2022-12-25T05:13:57.027Z,66.07
2022-12-25T05:16:59.023Z,66.43
2022-12-25T05:20:00.854Z,66.85
2022-12-25T05:23:02.744Z,66.48
2022-12-25T05:26:07.596Z,65.52
2022-12-25T05:29:09.439Z,65.71
2022-12-25T05:32:11.479Z,66.74
2022-12-25T05:35:13.362Z,69.44
2022-12-25T05:38:15.241Z,70.51
2022-12-25T05:41:17.137Z,69.62
2022-12-25T05:44:18.972Z,68.34
2022-12-25T05:47:20.828Z,67.61
2022-12-25T05:50:22.683Z,67.99
2022-12-25T05:53:24.640Z,68.72
2022-12-25T05:56:26.628Z,66.98
2022-12-25T05:59:32.316Z,68.01
2022-12-25T06:02:35.408Z,66.90
2022-12-25T06:05:38.943Z,68.31
2022-12-25T06:08:41.657Z,68.72
2022-12-25T06:11:43.492Z,70.22
2022-12-25T06:14:45.396Z,71.53
2022-12-25T06:17:47.329Z,70.21
2022-12-25T06:20:49.195Z,67.73
2022-12-25T06:23:51.214Z,69.89
2022-12-25T06:26:53.193Z,72.08
2022-12-25T06:29:55.087Z,71.30
2022-12-25T06:32:57.058Z,73.28
2022-12-25T06:35:59.083Z,72.52
2022-12-25T06:39:01.203Z,72.83
2022-12-25T06:42:03.118Z,73.34
2022-12-25T06:45:05.379Z,74.02
2022-12-25T06:48:07.305Z,72.39
2022-12-25T06:51:09.215Z,70.93
2022-12-25T06:54:11.328Z,70.92
2022-12-25T06:57:13.186Z,70.46
2022-12-25T07:00:15.225Z,69.57
2022-12-25T07:03:17.834Z,69.98
2022-12-25T07:06:19.817Z,70.73
2022-12-25T07:09:21.863Z,69.73
2022-12-25T07:12:24.270Z,70.65
2022-12-25T07:15:26.207Z,68.39
2022-12-25T07:18:28.196Z,67.65
2022-12-25T07:21:30.146Z,69.90
2022-12-25T07:24:31.992Z,67.60
2022-12-25T07:27:33.843Z,69.44
2022-12-25T07:30:35.726Z,68.90
2022-12-25T07:33:37.671Z,68.19
2022-12-25T07:36:39.561Z,66.96
2022-12-25T07:39:41.565Z,68.55
2022-12-25T07:42:43.547Z,68.72
2022-12-25T07:45:45.490Z,67.66
2022-12-25T07:48:47.465Z,65.80
2022-12-25T07:51:49.303Z,67.20
2022-12-25T07:54:51.257Z,67.32
2022-12-25T07:57:53.265Z,68.03
2022-12-25T08:00:55.378Z,68.17
2022-12-25T08:03:58.416Z,67.41
2022-12-25T08:07:00.312Z,67.03
2022-12-25T08:10:02.885Z,67.22
2022-12-25T08:13:09.041Z,67.74
2022-12-25T08:16:14.330Z,66.69
2022-12-25T08:19:16.215Z,65.40
2022-12-25T08:22:18.109Z,62.88
2022-12-25T08:25:19.988Z,64.39
2022-12-25T08:28:21.869Z,64.90
2022-12-25T08:31:24.988Z,65.74
2022-12-25T08:34:26.991Z,65.42
2022-12-25T08:37:31.640Z,65.09
2022-12-25T08:40:33.590Z,64.94
2022-12-25T08:43:35.637Z,66.28
2022-12-25T08:46:39.901Z,65.00
2022-12-25T08:49:41.830Z,64.89
2022-12-25T08:52:43.864Z,66.91
2022-12-25T08:55:45.931Z,65.16
2022-12-25T08:58:47.886Z,64.51
2022-12-25T09:01:49.921Z,64.64
2022-12-25T09:04:51.947Z,65.51
2022-12-25T09:07:53.960Z,64.14
2022-12-25T09:10:56.272Z,68.42
2022-12-25T09:13:58.124Z,69.24
2022-12-25T09:16:59.961Z,66.73
2022-12-25T09:20:02.079Z,66.72
2022-12-25T09:23:08.495Z,64.74
2022-12-25T09:26:15.177Z,63.01
2022-12-25T09:29:17.971Z,62.22
2022-12-25T09:32:19.971Z,63.03
2022-12-25T09:35:21.875Z,62.13
2022-12-25T09:38:23.750Z,61.22
2022-12-25T09:41:25.681Z,59.45
2022-12-25T09:44:38.394Z,59.93
2022-12-25T09:47:40.566Z,61.34
2022-12-25T09:50:42.468Z,61.63
2022-12-25T09:53:46.125Z,60.89
2022-12-25T09:56:47.985Z,61.49
2022-12-25T09:59:51.423Z,61.01
2022-12-25T10:03:00.240Z,62.88
2022-12-25T10:06:17.770Z,61.33
2022-12-25T10:09:34.993Z,60.24
2022-12-25T10:12:36.819Z,58.90
2022-12-25T10:15:59.128Z,60.18
2022-12-25T10:19:05.153Z,60.66
2022-12-25T10:22:21.388Z,59.55
2022-12-25T10:25:24.104Z,59.89
2022-12-25T10:28:27.122Z,58.68
2022-12-25T10:31:29.640Z,58.41
2022-12-25T10:34:32.435Z,56.51
2022-12-25T10:37:34.308Z,57.08
2022-12-25T10:40:45.351Z,56.59
2022-12-25T10:43:51.596Z,55.13
2022-12-25T10:46:57.280Z,54.96
2022-12-25T10:49:59.503Z,56.11
2022-12-25T10:53:04.473Z,56.05
2022-12-25T10:56:06.508Z,54.19
2022-12-25T10:59:09.608Z,52.97
2022-12-25T11:02:16.373Z,54.17
2022-12-25T11:05:36.397Z,54.09
2022-12-25T11:08:38.239Z,54.08
2022-12-25T11:11:40.458Z,53.50
2022-12-25T11:14:51.475Z,54.12
2022-12-25T11:17:53.377Z,52.61
2022-12-25T11:20:59.461Z,53.04
2022-12-25T11:24:05.207Z,52.61
2022-12-25T11:27:07.231Z,52.13
2022-12-25T11:30:15.863Z,51.84
2022-12-25T11:33:18.003Z,50.04
2022-12-25T11:36:28.838Z,49.62
2022-12-25T11:39:40.423Z,48.12
2022-12-25T11:42:44.357Z,45.49
2022-12-25T11:45:51.195Z,45.08
2022-12-25T11:48:57.775Z,44.89
2022-12-25T11:51:59.723Z,42.52
2022-12-25T11:55:03.611Z,43.39
2022-12-25T11:58:31.935Z,40.78
2022-12-25T12:01:35.246Z,38.87
2022-12-25T12:04:43.016Z,36.89
2022-12-25T12:07:51.072Z,34.90
2022-12-25T12:11:18.079Z,30.78
2022-12-25T12:14:23.054Z,28.36
2022-12-25T12:17:24.942Z,28.18
2022-12-25T12:20:29.306Z,27.55
2022-12-25T12:23:33.978Z,26.52
2022-12-25T12:26:38.142Z,27.34
2022-12-25T12:29:41.255Z,26.22
2022-12-25T12:32:43.551Z,24.01
2022-12-25T12:35:45.432Z,24.45
2022-12-25T12:38:47.418Z,27.48
2022-12-25T12:41:49.250Z,30.15
2022-12-25T12:44:51.144Z,33.14
2022-12-25T12:47:53.172Z,35.12
2022-12-25T12:51:05.816Z,36.55
2022-12-25T12:54:18.173Z,39.37
2022-12-25T12:57:25.365Z,41.90
2022-12-25T13:00:28.459Z,42.01
2022-12-25T13:03:36.512Z,41.04
2022-12-25T13:06:38.381Z,42.53
2022-12-25T13:09:58.732Z,44.84
2022-12-25T13:13:01.307Z,43.44
2022-12-25T13:16:03.420Z,44.71
2022-12-25T13:19:06.376Z,46.48
2022-12-25T13:22:20.026Z,45.04
2022-12-25T13:25:22.426Z,45.15
2022-12-25T13:28:31.578Z,47.36
2022-12-25T13:31:33.498Z,46.97
2022-12-25T13:34:39.095Z,46.44
2022-12-25T13:37:41.027Z,46.27
2022-12-25T13:41:08.051Z,46.12
2022-12-25T13:44:16.134Z,45.81
2022-12-25T13:47:22.798Z,44.95
2022-12-25T13:50:25.990Z,45.93
2022-12-25T13:53:28.010Z,46.35
2022-12-25T13:56:30.015Z,47.32
2022-12-25T13:59:31.916Z,48.76
2022-12-25T14:02:37.277Z,48.40
2022-12-25T14:05:42.880Z,46.98
2022-12-25T14:08:45.441Z,45.73
2022-12-25T14:11:49.538Z,43.12
2022-12-25T14:14:51.856Z,42.37
2022-12-25T14:17:53.773Z,46.14
2022-12-25T14:20:57.247Z,46.67
2022-12-25T14:23:59.183Z,47.51
2022-12-25T14:27:04.910Z,47.89
2022-12-25T14:30:07.077Z,47.81
2022-12-25T14:33:09.908Z,50.30
2022-12-25T14:36:12.504Z,51.84
2022-12-25T14:39:23.727Z,52.01
2022-12-25T14:42:29.974Z,53.81
2022-12-25T14:45:40.788Z,53.70
2022-12-25T14:48:43.797Z,53.12
2022-12-25T14:51:45.680Z,54.93
2022-12-25T14:54:54.600Z,54.33
2022-12-25T14:58:04.908Z,54.64
2022-12-25T15:01:06.812Z,55.07
2022-12-25T15:04:12.224Z,55.91
2022-12-25T15:07:28.496Z,56.25
2022-12-25T15:13:52.859Z,57.60
2022-12-25T15:16:55.779Z,58.63
2022-12-25T15:19:57.926Z,59.57
2022-12-25T15:23:19.414Z,62.20
2022-12-25T15:26:22.006Z,61.50
2022-12-25T15:29:59.600Z,60.49
2022-12-25T15:32:45.936Z,60.76
2022-12-25T15:35:47.881Z,61.46
2022-12-25T15:38:49.815Z,60.69
2022-12-25T15:42:10.208Z,61.38
2022-12-25T15:45:17.794Z,61.02
2022-12-25T15:48:19.664Z,60.94
2022-12-25T15:51:21.553Z,62.09
2022-12-25T15:54:23.483Z,60.83
2022-12-25T15:57:26.407Z,61.25
2022-12-25T16:00:28.415Z,60.95
2022-12-25T16:03:30.400Z,61.96
2022-12-25T16:06:32.247Z,63.03
2022-12-25T16:09:34.050Z,64.73
2022-12-25T16:12:35.906Z,64.37
2022-12-25T16:15:37.996Z,63.87
2022-12-25T16:18:46.855Z,63.16
2022-12-25T16:21:49.517Z,62.50
2022-12-25T16:24:51.836Z,61.43
2022-12-25T16:27:53.814Z,61.51
2022-12-25T16:30:55.663Z,64.54
2022-12-25T16:33:57.514Z,63.25
2022-12-25T16:36:59.408Z,65.15
2022-12-25T16:40:01.407Z,60.73
2022-12-25T16:43:03.298Z,64.21
2022-12-25T16:46:08.860Z,62.70
2022-12-25T16:49:10.777Z,64.44
2022-12-25T16:52:13.007Z,64.36
2022-12-25T16:55:14.898Z,61.64
2022-12-25T16:58:16.865Z,61.36
2022-12-25T17:01:19.626Z,60.81
2022-12-25T17:04:21.612Z,60.95
2022-12-25T17:07:23.498Z,59.34
2022-12-25T17:10:25.354Z,60.88
2022-12-25T17:13:27.296Z,60.96
2022-12-25T17:16:30.515Z,58.99
2022-12-25T17:19:32.512Z,59.55
2022-12-25T17:22:34.443Z,58.79
2022-12-25T17:25:36.818Z,59.15
2022-12-25T17:28:38.841Z,59.22
2022-12-25T17:31:40.949Z,58.27
2022-12-25T17:34:42.903Z,59.46
2022-12-25T17:37:44.898Z,60.76
2022-12-25T17:40:55.070Z,59.54
2022-12-25T17:43:57.075Z,58.87
2022-12-25T17:46:59.141Z,60.94
2022-12-25T17:50:01.202Z,61.43
2022-12-25T17:53:05.234Z,61.48
2022-12-25T17:56:07.552Z,60.56
2022-12-25T17:59:14.096Z,60.44
2022-12-25T18:02:16.171Z,60.34
2022-12-25T18:05:18.527Z,61.15
2022-12-25T18:08:20.390Z,61.75
2022-12-25T18:11:23.914Z,61.78
2022-12-25T18:14:25.782Z,60.43
2022-12-25T18:17:28.914Z,61.09
2022-12-25T18:20:37.649Z,59.50
2022-12-25T18:23:41.664Z,57.85
2022-12-25T18:26:43.613Z,58.50
2022-12-25T18:29:45.700Z,60.56
2022-12-25T18:32:47.554Z,62.76
2022-12-25T18:35:49.430Z,63.18
2022-12-25T18:38:52.026Z,63.63
2022-12-25T18:42:12.831Z,60.77
2022-12-25T18:45:15.189Z,62.22
2022-12-25T18:48:17.067Z,62.46
2022-12-25T18:51:19.046Z,63.67
2022-12-25T18:54:20.928Z,61.03
2022-12-25T18:57:23.137Z,61.64
2022-12-25T19:00:25.115Z,61.37
2022-12-25T19:03:27.257Z,58.71
2022-12-25T19:06:29.374Z,59.58
2022-12-25T19:09:31.519Z,59.25
2022-12-25T19:12:33.632Z,59.34
2022-12-25T19:15:35.857Z,62.05
2022-12-25T19:18:38.186Z,60.50
2022-12-25T19:21:40.248Z,59.97
2022-12-25T19:24:42.336Z,60.89
2022-12-25T19:27:44.798Z,61.70
2022-12-25T19:30:46.850Z,60.17
2022-12-25T19:33:48.836Z,61.65
2022-12-25T19:36:50.801Z,61.03
2022-12-25T19:39:52.756Z,59.88
2022-12-25T19:42:54.568Z,56.78
2022-12-25T19:45:56.773Z,56.52
2022-12-25T19:49:04.529Z,57.65
2022-12-25T19:52:06.567Z,59.02
2022-12-25T19:55:08.682Z,60.66
2022-12-25T19:58:10.615Z,58.32
2022-12-25T20:01:13.565Z,56.89
2022-12-25T20:04:18.118Z,57.51
2022-12-25T20:07:20.038Z,59.98
2022-12-25T20:10:21.912Z,57.66
2022-12-25T20:13:23.745Z,57.68
2022-12-25T20:16:26.027Z,57.26
2022-12-25T20:19:28.083Z,58.71
2022-12-25T20:22:30.325Z,57.92
2022-12-25T20:25:32.368Z,58.14
2022-12-25T20:28:34.896Z,59.51
2022-12-25T20:31:36.854Z,58.60
2022-12-25T20:34:38.764Z,60.31
2022-12-25T20:37:40.702Z,61.10
2022-12-25T20:41:24.440Z,64.64
2022-12-25T20:44:06.801Z,65.40
2022-12-25T20:47:08.971Z,61.57
2022-12-25T20:50:10.848Z,62.86
2022-12-25T20:53:12.731Z,61.36
2022-12-25T20:56:15.876Z,61.26
2022-12-25T20:59:17.899Z,59.00
2022-12-25T21:02:34.709Z,60.60
2022-12-25T21:05:49.799Z,59.46
2022-12-25T21:08:51.843Z,58.96
2022-12-25T21:11:53.793Z,59.00
2022-12-25T21:14:55.688Z,60.67
2022-12-25T21:17:57.513Z,63.44
2022-12-25T21:20:59.501Z,62.64
2022-12-25T21:24:01.595Z,61.63
2022-12-25T21:27:03.443Z,61.60
2022-12-25T21:30:15.136Z,60.65
2022-12-25T21:33:36.137Z,60.02
2022-12-25T21:36:38.158Z,61.11
2022-12-25T21:39:40.055Z,57.74
2022-12-25T21:42:41.959Z,56.85
2022-12-25T21:45:43.882Z,56.90
2022-12-25T21:48:45.842Z,58.29
2022-12-25T21:52:06.568Z,57.81
2022-12-25T21:55:08.591Z,57.58
2022-12-25T21:58:10.520Z,59.09
2022-12-25T22:01:16.506Z,57.97
2022-12-25T22:04:19.681Z,57.34
2022-12-25T22:07:21.594Z,58.53
2022-12-25T22:10:23.472Z,58.94
2022-12-25T22:13:44.209Z,59.32
2022-12-25T22:17:04.957Z,57.45
2022-12-25T22:20:07.980Z,60.11
2022-12-25T22:23:09.855Z,57.95
2022-12-25T22:26:17.319Z,58.04
2022-12-25T22:29:22.446Z,59.01
2022-12-25T22:32:24.470Z,60.69
2022-12-25T22:35:26.379Z,57.95
2022-12-25T22:38:28.213Z,58.10
2022-12-25T22:41:33.647Z,58.12
2022-12-25T22:44:35.944Z,59.40
2022-12-25T22:47:37.903Z,58.13
2022-12-25T22:50:39.905Z,57.72
2022-12-25T22:53:41.818Z,59.19
2022-12-25T22:56:44.395Z,58.08
2022-12-25T22:59:46.249Z,60.04
2022-12-25T23:02:48.270Z,55.97
2022-12-25T23:05:54.193Z,55.96
2022-12-25T23:08:56.092Z,56.39
2022-12-25T23:11:58.508Z,56.35
2022-12-25T23:15:00.399Z,56.08
2022-12-25T23:18:20.767Z,56.61
2022-12-25T23:21:41.204Z,56.17
2022-12-25T23:25:01.749Z,56.68
2022-12-25T23:28:03.601Z,57.02
2022-12-25T23:31:05.593Z,58.10
2022-12-25T23:34:07.738Z,57.04
2022-12-25T23:37:09.874Z,58.74
2022-12-25T23:40:11.851Z,57.74
2022-12-25T23:43:13.778Z,57.12
2022-12-25T23:46:15.742Z,57.25
2022-12-25T23:49:17.856Z,57.89
2022-12-25T23:52:19.739Z,58.46
2022-12-25T23:55:21.692Z,57.71
2022-12-25T23:58:24.170Z,58.24
